Flight Track Log - Related Links

Times and Time Zones

All times are in EDT time to prevent confusion due to time zone crossing. See the SKW4764 flight status page for this flight to view local times or setup timezone preferences in your user account.

Time Position Orientation Groundspeed Altitude Reporting Facility
EDT Latitude Longitude Course Direction KTS MPH feet Rate Location/Type
Fri 05:19:13 PM 40.8128 -111.9772 17° North 178 205 5,000  Level Salt Lake Center
Fri 05:19:44 PM 40.8369 -111.9803 355° North 183 211 5,900 2,420 Climbing Salt Lake Center
Fri 05:21:12 PM 40.9417 -111.9897 356° North 262 302 9,800 2,410 Climbing Salt Lake Center
Fri 05:21:46 PM 40.9769 -111.9694 23° Northeast 277 319 10,800 1,742 Climbing Salt Lake Center
Fri 05:22:00 PM 41.1903 -112.1034 13° North  Level Estimated
Fri 05:22:14 PM 41.0156 -111.9464 24° Northeast 284 327 11,600  Level Salt Lake Center
Fri 05:23:00 PM 41.2637 -112.0070 45° Northeast  Level FlightAware Approximate
Fri 05:23:16 PM 41.0986 -111.8983 24° Northeast 313 360 13,800  Level Salt Lake Center
Fri 05:24:00 PM 41.3639 -112.0405 17° North  Level Estimated
Fri 05:24:18 PM 41.1833 -111.8503 23° Northeast 325 374 15,800  Level Salt Lake Center
Fri 05:25:20 PM 41.2667 -111.7958 26° Northeast 332 382 17,600 1,463 Climbing Salt Lake Center
Fri 05:26:21 PM 41.3511 -111.7394 27° Northeast 339 390 18,800 1,220 Climbing Salt Lake Center
Fri 05:27:23 PM 41.4394 -111.7664 347° North 325 374 20,100 1,258 Climbing Salt Lake Center
Fri 05:28:25 PM 41.5281 -111.8003 344° North 331 381 21,400 1,258 Climbing Salt Lake Center
Fri 05:29:27 PM 41.6186 -111.8353 344° North 338 389 22,700 1,210 Climbing Salt Lake Center
Fri 05:30:29 PM 41.7303 -111.8786 344° North 349 402 23,900 1,065 Climbing Salt Lake Center
Fri 05:31:31 PM 41.8233 -111.9139 344° North 348 400 24,900 871 Climbing Salt Lake Center
Fri 05:32:33 PM 41.9172 -111.9531 343° North 353 406 25,700 532 Climbing Salt Lake Center
Fri 05:33:35 PM 42.0161 -111.9922 344° North 369 425 26,000 145 Climbing Salt Lake Center
Fri 05:34:37 PM 42.1169 -112.0297 345° North 376 433 26,000  Level Salt Lake Center
Fri 05:35:38 PM 42.2183 -112.0706 343° North 379 436 26,000  Level Salt Lake Center
Fri 05:36:40 PM 42.3389 -112.1169 344° North 376 433 26,000  Level Salt Lake Center
Fri 05:37:42 PM 42.4378 -112.1578 343° North 372 428 26,000  Level Salt Lake Center
Fri 05:38:44 PM 42.5394 -112.1958 345° North 378 435 26,000  Level Salt Lake Center
Fri 05:39:46 PM 42.6408 -112.2378 343° North 381 438 26,000  Level Salt Lake Center
Fri 05:40:48 PM 42.7450 -112.2786 344° North 372 428 26,000  Level Salt Lake Center
Fri 05:41:50 PM 42.8558 -112.3236 343° North 370 426 26,000  Level Salt Lake Center
Fri 05:42:52 PM 42.9494 -112.3611 344° North 367 422 26,000  Level Salt Lake Center
Fri 05:43:54 PM 43.0433 -112.3992 344° North 367 422 26,000  Level Salt Lake Center
Fri 05:44:56 PM 43.1522 -112.4444 343° North 365 420 26,000  Level Salt Lake Center
Fri 05:45:57 PM 43.2456 -112.4825 343° North 363 418 26,000  Level Salt Lake Center
Fri 05:46:59 PM 43.3531 -112.5253 344° North 360 414 26,000  Level Salt Lake Center
Fri 05:48:01 PM 43.4456 -112.5636 343° North 361 415 26,000  Level Salt Lake Center
Fri 05:49:03 PM 43.5539 -112.6072 344° North 361 415 26,000  Level Salt Lake Center
Fri 05:50:05 PM 43.6458 -112.6469 343° North 361 415 26,000  Level Salt Lake Center
Fri 05:51:07 PM 43.7389 -112.6850 344° North 363 418 26,000  Level Salt Lake Center
Fri 05:52:08 PM 43.8486 -112.7311 343° North 366 421 26,000  Level Salt Lake Center
Fri 05:53:10 PM 43.9419 -112.7700 343° North 366 421 26,000  Level Salt Lake Center
Fri 05:54:12 PM 44.0556 -112.8183 343° North 376 433 26,000  Level Salt Lake Center
Fri 05:55:14 PM 44.1531 -112.8592 343° North 379 436 26,000  Level Salt Lake Center
Fri 05:56:16 PM 44.2658 -112.9078 343° North 380 437 26,000  Level Salt Lake Center
Fri 05:57:17 PM 44.3606 -112.9475 343° North 375 432 26,000  Level Salt Lake Center
Fri 05:58:19 PM 44.4550 -112.9872 343° North 371 427 26,000  Level Salt Lake Center
Fri 05:59:21 PM 44.5647 -113.0344 343° North 370 426 26,000  Level Salt Lake Center
Fri 06:00:23 PM 44.6583 -113.0753 343° North 367 422 26,000  Level Salt Lake Center
Fri 06:01:24 PM 44.7653 -113.1214 343° North 362 417 26,000  Level Salt Lake Center
Fri 06:02:26 PM 44.8583 -113.1606 343° North 363 418 26,000  Level Salt Lake Center
Fri 06:03:28 PM 44.9653 -113.2083 342° North 362 417 26,000  Level Salt Lake Center
Fri 06:04:30 PM 45.0572 -113.2481 343° North 361 415 26,000  Level Salt Lake Center
Fri 06:05:32 PM 45.1508 -113.2889 343° North 365 420 26,000  Level Salt Lake Center
Fri 06:06:33 PM 45.2597 -113.3367 343° North 366 421 26,000  Level Salt Lake Center
Fri 06:07:35 PM 45.3617 -113.3831 342° North 370 426 26,000  Level Salt Lake Center
Fri 06:08:37 PM 45.4639 -113.4275 343° North 374 430 26,000  Level Salt Lake Center
Fri 06:09:38 PM 45.5647 -113.4725 343° North 375 432 26,000  Level Salt Lake Center
Fri 06:10:40 PM 45.6664 -113.5189 342° North 374 430 26,000 -97 Level Salt Lake Center
Fri 06:11:42 PM 45.7769 -113.5672 343° North 379 436 25,800 -1,113 Descending Salt Lake Center
Fri 06:12:44 PM 45.8764 -113.6128 342° North 372 428 23,700 -1,902 Descending Salt Lake Center
Fri 06:13:45 PM 45.9611 -113.6497 343° North 363 418 21,900 -1,854 Descending Salt Lake Center
Fri 06:14:47 PM 46.0506 -113.6908 342° North 341 392 19,900 -2,032 Descending Salt Lake Center
Fri 06:15:49 PM 46.1528 -113.7375 342° North 328 377 17,700 -1,951 Descending Salt Lake Center
Fri 06:16:50 PM 46.2369 -113.7792 341° North 322 371 15,900 -1,366 Descending Salt Lake Center
Fri 06:17:52 PM 46.3242 -113.8183 343° North 305 351 14,900 -484 Descending Salt Lake Center
Fri 06:18:54 PM 46.4014 -113.8519 343° North 293 337 14,900 -488 Level Salt Lake Center
Fri 06:19:55 PM 46.4747 -113.8847 343° North 278 320 13,900 -1,512 Descending Salt Lake Center
Fri 06:20:57 PM 46.5511 -113.9269 339° North 273 314 11,800 -1,984 Descending Salt Lake Center
Fri 06:21:59 PM 46.6189 -113.9681 337° Northwest 265 305 9,800 -2,000 Descending Salt Lake Center
Fri 06:23:00 PM 46.6856 -114.0158 334° Northwest 267 307 7,700 -1,366 Descending Salt Lake Center
Fri 06:24:02 PM 46.7586 -114.0347 350° North 245 282 7,000 -871 Descending Salt Lake Center
Fri 06:25:04 PM 46.8156 -114.0158 13° North 216 249 5,900 -1,073 Descending Salt Lake Center
Fri 06:26:05 PM 46.8647 -114.0089 North 161 185 4,800 -1,073 Descending Salt Lake Center
Fri 06:27:07 PM 46.8919 -114.0508 314° West 144 166 3,700 -774 Descending Salt Lake Center
Fri 06:28:09 PM 46.9172 -114.0942 311° West 139 160 3,200 -484 Descending Salt Lake Center

Login

Don't have an account? Register now (free) for customized features, flight alerts, and more!